sensor_id;sensor_type;location;lat;lon;timestamp;temperature;humidity
26408;DHT22;14583;43.604;1.364;2022-10-29T00:01:42;18.90;99.90
26408;DHT22;14583;43.604;1.364;2022-10-29T00:04:08;19.00;99.90
26408;DHT22;14583;43.604;1.364;2022-10-29T00:06:34;19.00;99.90
26408;DHT22;14583;43.604;1.364;2022-10-29T00:09:00;19.10;99.90
26408;DHT22;14583;43.604;1.364;2022-10-29T00:11:25;19.00;99.90
26408;DHT22;14583;43.604;1.364;2022-10-29T00:13:59;19.00;99.90
26408;DHT22;14583;43.604;1.364;2022-10-29T00:16:27;19.00;99.90
26408;DHT22;14583;43.604;1.364;2022-10-29T00:18:54;19.00;99.90
26408;DHT22;14583;43.604;1.364;2022-10-29T00:21:22;19.10;99.90
26408;DHT22;14583;43.604;1.364;2022-10-29T00:23:48;19.10;99.90
26408;DHT22;14583;43.604;1.364;2022-10-29T00:26:15;19.10;99.90
26408;DHT22;14583;43.604;1.364;2022-10-29T00:28:41;19.10;99.90
26408;DHT22;14583;43.604;1.364;2022-10-29T00:31:10;19.00;99.90
26408;DHT22;14583;43.604;1.364;2022-10-29T00:33:36;19.00;99.90
26408;DHT22;14583;43.604;1.364;2022-10-29T00:36:09;18.90;99.90
26408;DHT22;14583;43.604;1.364;2022-10-29T00:38:35;18.90;99.90
26408;DHT22;14583;43.604;1.364;2022-10-29T00:41:02;19.00;99.90
26408;DHT22;14583;43.604;1.364;2022-10-29T00:43:29;18.90;99.90
26408;DHT22;14583;43.604;1.364;2022-10-29T00:46:05;18.90;99.90
26408;DHT22;14583;43.604;1.364;2022-10-29T00:48:38;18.90;99.90
26408;DHT22;14583;43.604;1.364;2022-10-29T00:51:06;18.90;99.90
26408;DHT22;14583;43.604;1.364;2022-10-29T00:53:36;18.90;99.90
26408;DHT22;14583;43.604;1.364;2022-10-29T00:56:02;18.90;99.90
26408;DHT22;14583;43.604;1.364;2022-10-29T00:58:29;18.90;99.90
26408;DHT22;14583;43.604;1.364;2022-10-29T01:00:54;18.80;99.90
26408;DHT22;14583;43.604;1.364;2022-10-29T01:03:20;18.80;99.90
26408;DHT22;14583;43.604;1.364;2022-10-29T01:05:47;18.80;99.90
26408;DHT22;14583;43.604;1.364;2022-10-29T01:08:14;18.80;99.90
26408;DHT22;14583;43.604;1.364;2022-10-29T01:10:46;18.80;99.90
26408;DHT22;14583;43.604;1.364;2022-10-29T01:13:36;18.80;99.90
26408;DHT22;14583;43.604;1.364;2022-10-29T01:19:11;18.80;99.90
26408;DHT22;14583;43.604;1.364;2022-10-29T01:21:51;18.80;99.90
26408;DHT22;14583;43.604;1.364;2022-10-29T01:30:19;18.80;99.90
26408;DHT22;14583;43.604;1.364;2022-10-29T01:35:30;18.70;99.90
26408;DHT22;14583;43.604;1.364;2022-10-29T01:40:49;18.70;99.90
26408;DHT22;14583;43.604;1.364;2022-10-29T01:43:28;18.70;99.90
26408;DHT22;14583;43.604;1.364;2022-10-29T01:46:04;18.70;99.90
26408;DHT22;14583;43.604;1.364;2022-10-29T01:48:34;18.70;99.90
26408;DHT22;14583;43.604;1.364;2022-10-29T01:51:10;18.70;99.90
26408;DHT22;14583;43.604;1.364;2022-10-29T01:53:38;18.70;99.90
26408;DHT22;14583;43.604;1.364;2022-10-29T01:56:04;18.70;99.90
26408;DHT22;14583;43.604;1.364;2022-10-29T01:58:30;18.70;99.90
26408;DHT22;14583;43.604;1.364;2022-10-29T02:07:01;18.70;99.90
26408;DHT22;14583;43.604;1.364;2022-10-29T02:09:55;18.60;99.90
26408;DHT22;14583;43.604;1.364;2022-10-29T02:12:34;18.70;99.90
26408;DHT22;14583;43.604;1.364;2022-10-29T02:17:32;18.60;99.90
26408;DHT22;14583;43.604;1.364;2022-10-29T02:20:03;18.70;99.90
26408;DHT22;14583;43.604;1.364;2022-10-29T02:22:28;18.60;99.90
26408;DHT22;14583;43.604;1.364;2022-10-29T02:24:57;18.60;99.90
26408;DHT22;14583;43.604;1.364;2022-10-29T02:27:22;18.60;99.90
26408;DHT22;14583;43.604;1.364;2022-10-29T02:29:48;18.70;99.90
26408;DHT22;14583;43.604;1.364;2022-10-29T02:32:14;18.70;99.90
26408;DHT22;14583;43.604;1.364;2022-10-29T02:34:39;18.70;99.90
26408;DHT22;14583;43.604;1.364;2022-10-29T02:37:05;18.80;99.90
26408;DHT22;14583;43.604;1.364;2022-10-29T02:39:30;18.60;99.90
26408;DHT22;14583;43.604;1.364;2022-10-29T02:41:57;18.60;99.90
26408;DHT22;14583;43.604;1.364;2022-10-29T02:44:22;18.60;99.90
26408;DHT22;14583;43.604;1.364;2022-10-29T02:46:48;18.60;99.90
26408;DHT22;14583;43.604;1.364;2022-10-29T02:49:14;18.60;99.90
26408;DHT22;14583;43.604;1.364;2022-10-29T02:51:39;18.70;99.90
26408;DHT22;14583;43.604;1.364;2022-10-29T02:54:05;18.70;99.90
26408;DHT22;14583;43.604;1.364;2022-10-29T02:56:31;18.70;99.90
26408;DHT22;14583;43.604;1.364;2022-10-29T02:58:56;18.70;99.90
26408;DHT22;14583;43.604;1.364;2022-10-29T03:01:22;18.60;99.90
26408;DHT22;14583;43.604;1.364;2022-10-29T03:03:48;18.50;99.90
26408;DHT22;14583;43.604;1.364;2022-10-29T03:06:18;18.40;99.90
26408;DHT22;14583;43.604;1.364;2022-10-29T03:08:44;18.50;99.90
26408;DHT22;14583;43.604;1.364;2022-10-29T03:11:10;18.50;99.90
26408;DHT22;14583;43.604;1.364;2022-10-29T03:13:36;18.50;99.90
26408;DHT22;14583;43.604;1.364;2022-10-29T03:16:02;18.50;99.90
26408;DHT22;14583;43.604;1.364;2022-10-29T03:18:28;18.40;99.90
26408;DHT22;14583;43.604;1.364;2022-10-29T03:20:54;18.40;99.90
26408;DHT22;14583;43.604;1.364;2022-10-29T03:23:19;18.50;99.90
26408;DHT22;14583;43.604;1.364;2022-10-29T03:25:53;18.50;99.90
26408;DHT22;14583;43.604;1.364;2022-10-29T03:28:24;18.50;99.90
26408;DHT22;14583;43.604;1.364;2022-10-29T03:30:49;18.50;99.90
26408;DHT22;14583;43.604;1.364;2022-10-29T03:33:15;18.40;99.90
26408;DHT22;14583;43.604;1.364;2022-10-29T03:35:41;18.40;99.90
26408;DHT22;14583;43.604;1.364;2022-10-29T03:38:06;18.30;99.90
26408;DHT22;14583;43.604;1.364;2022-10-29T03:40:32;18.30;99.90
26408;DHT22;14583;43.604;1.364;2022-10-29T03:42:58;18.40;99.90
26408;DHT22;14583;43.604;1.364;2022-10-29T03:45:23;18.30;99.90
26408;DHT22;14583;43.604;1.364;2022-10-29T03:47:49;18.30;99.90
26408;DHT22;14583;43.604;1.364;2022-10-29T03:50:15;18.40;99.90
26408;DHT22;14583;43.604;1.364;2022-10-29T03:52:40;18.40;99.90
26408;DHT22;14583;43.604;1.364;2022-10-29T03:55:06;18.40;99.90
26408;DHT22;14583;43.604;1.364;2022-10-29T03:57:32;18.50;99.90
26408;DHT22;14583;43.604;1.364;2022-10-29T03:59:58;18.40;99.90
26408;DHT22;14583;43.604;1.364;2022-10-29T04:02:25;18.30;99.90
26408;DHT22;14583;43.604;1.364;2022-10-29T04:04:51;18.30;99.90
26408;DHT22;14583;43.604;1.364;2022-10-29T04:07:17;18.30;99.90
26408;DHT22;14583;43.604;1.364;2022-10-29T04:09:42;18.30;99.90
26408;DHT22;14583;43.604;1.364;2022-10-29T04:12:08;18.30;99.90
26408;DHT22;14583;43.604;1.364;2022-10-29T04:14:34;18.30;99.90
26408;DHT22;14583;43.604;1.364;2022-10-29T04:17:00;18.30;99.90
26408;DHT22;14583;43.604;1.364;2022-10-29T04:19:25;18.30;99.90
26408;DHT22;14583;43.604;1.364;2022-10-29T04:21:51;18.20;99.90
26408;DHT22;14583;43.604;1.364;2022-10-29T04:24:17;18.30;99.90
26408;DHT22;14583;43.604;1.364;2022-10-29T04:26:42;18.20;99.90
26408;DHT22;14583;43.604;1.364;2022-10-29T04:29:08;18.30;99.90
26408;DHT22;14583;43.604;1.364;2022-10-29T04:31:34;18.30;99.90
26408;DHT22;14583;43.604;1.364;2022-10-29T04:33:59;18.20;99.90
26408;DHT22;14583;43.604;1.364;2022-10-29T04:36:25;18.20;99.90
26408;DHT22;14583;43.604;1.364;2022-10-29T04:38:50;18.30;99.90
26408;DHT22;14583;43.604;1.364;2022-10-29T04:41:16;18.20;99.90
26408;DHT22;14583;43.604;1.364;2022-10-29T04:43:42;18.20;99.90
26408;DHT22;14583;43.604;1.364;2022-10-29T04:46:09;18.20;99.90
26408;DHT22;14583;43.604;1.364;2022-10-29T04:48:35;18.10;99.90
26408;DHT22;14583;43.604;1.364;2022-10-29T04:51:00;18.10;99.90
26408;DHT22;14583;43.604;1.364;2022-10-29T04:53:26;18.10;99.90
26408;DHT22;14583;43.604;1.364;2022-10-29T04:56:00;18.10;99.90
26408;DHT22;14583;43.604;1.364;2022-10-29T04:58:26;18.10;99.90
26408;DHT22;14583;43.604;1.364;2022-10-29T05:00:52;18.10;99.90
26408;DHT22;14583;43.604;1.364;2022-10-29T05:03:18;18.10;99.90
26408;DHT22;14583;43.604;1.364;2022-10-29T05:05:44;18.20;99.90
26408;DHT22;14583;43.604;1.364;2022-10-29T05:08:10;18.10;99.90
26408;DHT22;14583;43.604;1.364;2022-10-29T05:10:37;18.10;99.90
26408;DHT22;14583;43.604;1.364;2022-10-29T05:13:06;18.10;99.90
26408;DHT22;14583;43.604;1.364;2022-10-29T05:15:32;18.20;99.90
26408;DHT22;14583;43.604;1.364;2022-10-29T05:17:58;18.20;99.90
26408;DHT22;14583;43.604;1.364;2022-10-29T05:20:24;18.10;99.90
26408;DHT22;14583;43.604;1.364;2022-10-29T05:23:00;18.20;99.90
26408;DHT22;14583;43.604;1.364;2022-10-29T05:25:27;18.20;99.90
26408;DHT22;14583;43.604;1.364;2022-10-29T05:30:26;18.10;99.90
26408;DHT22;14583;43.604;1.364;2022-10-29T05:32:51;18.20;99.90
26408;DHT22;14583;43.604;1.364;2022-10-29T05:35:17;18.20;99.90
26408;DHT22;14583;43.604;1.364;2022-10-29T05:37:43;18.20;99.90
26408;DHT22;14583;43.604;1.364;2022-10-29T05:40:14;18.20;99.90
26408;DHT22;14583;43.604;1.364;2022-10-29T05:42:40;18.20;99.90
26408;DHT22;14583;43.604;1.364;2022-10-29T05:45:06;18.20;99.90
26408;DHT22;14583;43.604;1.364;2022-10-29T05:47:31;18.20;99.90
26408;DHT22;14583;43.604;1.364;2022-10-29T05:49:57;18.20;99.90
26408;DHT22;14583;43.604;1.364;2022-10-29T05:52:23;18.20;99.90
26408;DHT22;14583;43.604;1.364;2022-10-29T05:54:48;18.10;99.90
26408;DHT22;14583;43.604;1.364;2022-10-29T05:57:14;18.10;99.90
26408;DHT22;14583;43.604;1.364;2022-10-29T05:59:39;18.10;99.90
26408;DHT22;14583;43.604;1.364;2022-10-29T06:02:05;18.10;99.90
26408;DHT22;14583;43.604;1.364;2022-10-29T06:04:33;18.20;99.90
26408;DHT22;14583;43.604;1.364;2022-10-29T06:07:00;18.20;99.90
26408;DHT22;14583;43.604;1.364;2022-10-29T06:09:25;18.20;99.90
26408;DHT22;14583;43.604;1.364;2022-10-29T06:11:51;18.20;99.90
26408;DHT22;14583;43.604;1.364;2022-10-29T06:14:16;18.20;99.90
26408;DHT22;14583;43.604;1.364;2022-10-29T06:16:42;18.10;99.90
26408;DHT22;14583;43.604;1.364;2022-10-29T06:19:08;18.00;99.90
26408;DHT22;14583;43.604;1.364;2022-10-29T06:21:33;18.10;99.90
26408;DHT22;14583;43.604;1.364;2022-10-29T06:24:00;18.10;99.90
26408;DHT22;14583;43.604;1.364;2022-10-29T06:26:25;18.10;99.90
26408;DHT22;14583;43.604;1.364;2022-10-29T06:28:51;18.00;99.90
26408;DHT22;14583;43.604;1.364;2022-10-29T06:31:17;18.00;99.90
26408;DHT22;14583;43.604;1.364;2022-10-29T06:33:42;18.10;99.90
26408;DHT22;14583;43.604;1.364;2022-10-29T06:36:08;18.20;99.90
26408;DHT22;14583;43.604;1.364;2022-10-29T06:38:33;18.10;99.90
26408;DHT22;14583;43.604;1.364;2022-10-29T06:40:59;18.00;99.90
26408;DHT22;14583;43.604;1.364;2022-10-29T06:43:25;18.00;99.90
26408;DHT22;14583;43.604;1.364;2022-10-29T06:45:51;18.10;99.90
26408;DHT22;14583;43.604;1.364;2022-10-29T06:48:16;18.10;99.90
26408;DHT22;14583;43.604;1.364;2022-10-29T06:50:42;18.10;99.90
26408;DHT22;14583;43.604;1.364;2022-10-29T06:53:11;18.10;99.90
26408;DHT22;14583;43.604;1.364;2022-10-29T06:55:38;18.00;99.90
26408;DHT22;14583;43.604;1.364;2022-10-29T06:58:11;18.10;99.90
26408;DHT22;14583;43.604;1.364;2022-10-29T07:00:37;18.10;99.90
26408;DHT22;14583;43.604;1.364;2022-10-29T07:03:03;18.10;99.90
26408;DHT22;14583;43.604;1.364;2022-10-29T07:05:30;18.10;99.90
26408;DHT22;14583;43.604;1.364;2022-10-29T07:07:57;18.10;99.90
26408;DHT22;14583;43.604;1.364;2022-10-29T07:10:25;18.20;99.90
26408;DHT22;14583;43.604;1.364;2022-10-29T07:12:51;18.10;99.90
26408;DHT22;14583;43.604;1.364;2022-10-29T07:15:16;18.20;99.90
26408;DHT22;14583;43.604;1.364;2022-10-29T07:17:42;18.20;99.90
26408;DHT22;14583;43.604;1.364;2022-10-29T07:20:18;18.20;99.90
26408;DHT22;14583;43.604;1.364;2022-10-29T07:22:46;18.20;99.90
26408;DHT22;14583;43.604;1.364;2022-10-29T07:25:12;18.30;99.90
26408;DHT22;14583;43.604;1.364;2022-10-29T07:27:37;18.30;99.90
26408;DHT22;14583;43.604;1.364;2022-10-29T07:30:03;18.30;99.90
26408;DHT22;14583;43.604;1.364;2022-10-29T07:32:29;18.40;99.90
26408;DHT22;14583;43.604;1.364;2022-10-29T07:34:54;18.40;99.90
26408;DHT22;14583;43.604;1.364;2022-10-29T07:37:20;18.50;99.90
26408;DHT22;14583;43.604;1.364;2022-10-29T07:39:46;18.40;99.90
26408;DHT22;14583;43.604;1.364;2022-10-29T07:42:11;18.50;99.90
26408;DHT22;14583;43.604;1.364;2022-10-29T07:44:37;18.50;99.90
26408;DHT22;14583;43.604;1.364;2022-10-29T07:47:02;18.50;99.90
26408;DHT22;14583;43.604;1.364;2022-10-29T07:49:28;18.60;99.90
26408;DHT22;14583;43.604;1.364;2022-10-29T07:51:54;18.70;99.90
26408;DHT22;14583;43.604;1.364;2022-10-29T07:54:19;18.80;99.90
26408;DHT22;14583;43.604;1.364;2022-10-29T07:56:45;19.00;99.90
26408;DHT22;14583;43.604;1.364;2022-10-29T07:59:10;18.90;99.90
26408;DHT22;14583;43.604;1.364;2022-10-29T08:01:39;18.90;99.90
26408;DHT22;14583;43.604;1.364;2022-10-29T08:04:04;18.90;99.90
26408;DHT22;14583;43.604;1.364;2022-10-29T08:06:30;19.00;99.90
26408;DHT22;14583;43.604;1.364;2022-10-29T08:08:56;19.00;99.90
26408;DHT22;14583;43.604;1.364;2022-10-29T08:11:22;19.00;99.90
26408;DHT22;14583;43.604;1.364;2022-10-29T08:13:48;19.20;99.90
26408;DHT22;14583;43.604;1.364;2022-10-29T08:16:14;19.20;99.90
26408;DHT22;14583;43.604;1.364;2022-10-29T08:18:39;19.20;99.90
26408;DHT22;14583;43.604;1.364;2022-10-29T08:21:05;19.20;99.90
26408;DHT22;14583;43.604;1.364;2022-10-29T08:23:31;19.30;99.90
26408;DHT22;14583;43.604;1.364;2022-10-29T08:25:57;19.30;99.90
26408;DHT22;14583;43.604;1.364;2022-10-29T08:28:23;19.40;99.90
26408;DHT22;14583;43.604;1.364;2022-10-29T08:30:49;19.40;99.90
26408;DHT22;14583;43.604;1.364;2022-10-29T08:33:16;19.40;99.90
26408;DHT22;14583;43.604;1.364;2022-10-29T08:35:42;19.50;99.90
26408;DHT22;14583;43.604;1.364;2022-10-29T08:38:07;19.60;99.90
26408;DHT22;14583;43.604;1.364;2022-10-29T08:43:31;19.70;99.90
26408;DHT22;14583;43.604;1.364;2022-10-29T08:45:58;19.70;99.90
26408;DHT22;14583;43.604;1.364;2022-10-29T08:48:40;19.80;99.90
26408;DHT22;14583;43.604;1.364;2022-10-29T08:51:12;19.80;99.90
26408;DHT22;14583;43.604;1.364;2022-10-29T08:53:45;19.80;99.90
26408;DHT22;14583;43.604;1.364;2022-10-29T08:56:33;19.90;99.90
26408;DHT22;14583;43.604;1.364;2022-10-29T08:59:03;19.90;99.90
26408;DHT22;14583;43.604;1.364;2022-10-29T09:01:30;20.00;99.90
26408;DHT22;14583;43.604;1.364;2022-10-29T09:03:56;20.00;99.90
26408;DHT22;14583;43.604;1.364;2022-10-29T09:23:09;20.30;99.90
26408;DHT22;14583;43.604;1.364;2022-10-29T09:26:03;20.30;99.90
26408;DHT22;14583;43.604;1.364;2022-10-29T09:28:45;20.40;99.90
26408;DHT22;14583;43.604;1.364;2022-10-29T09:34:16;20.50;99.90
26408;DHT22;14583;43.604;1.364;2022-10-29T09:36:46;20.60;99.90
26408;DHT22;14583;43.604;1.364;2022-10-29T09:39:15;20.60;99.90
26408;DHT22;14583;43.604;1.364;2022-10-29T09:41:45;20.70;99.90
26408;DHT22;14583;43.604;1.364;2022-10-29T09:44:20;20.70;99.90
26408;DHT22;14583;43.604;1.364;2022-10-29T09:47:21;20.60;99.90
26408;DHT22;14583;43.604;1.364;2022-10-29T09:49:59;20.70;99.90
26408;DHT22;14583;43.604;1.364;2022-10-29T09:52:41;20.80;99.90
26408;DHT22;14583;43.604;1.364;2022-10-29T09:55:20;20.80;99.90
26408;DHT22;14583;43.604;1.364;2022-10-29T09:57:47;20.80;99.90
26408;DHT22;14583;43.604;1.364;2022-10-29T10:00:24;20.80;99.90
26408;DHT22;14583;43.604;1.364;2022-10-29T10:02:56;20.90;99.90
26408;DHT22;14583;43.604;1.364;2022-10-29T10:05:27;21.00;99.90
26408;DHT22;14583;43.604;1.364;2022-10-29T10:10:52;21.10;99.90
26408;DHT22;14583;43.604;1.364;2022-10-29T10:13:21;21.00;99.90
26408;DHT22;14583;43.604;1.364;2022-10-29T10:16:07;21.10;99.90
26408;DHT22;14583;43.604;1.364;2022-10-29T10:18:41;21.10;99.90
26408;DHT22;14583;43.604;1.364;2022-10-29T10:24:01;21.10;99.90
26408;DHT22;14583;43.604;1.364;2022-10-29T10:26:41;21.20;99.90
26408;DHT22;14583;43.604;1.364;2022-10-29T10:29:16;21.30;99.90
26408;DHT22;14583;43.604;1.364;2022-10-29T10:32:28;21.30;99.90
26408;DHT22;14583;43.604;1.364;2022-10-29T10:37:05;21.30;99.90
26408;DHT22;14583;43.604;1.364;2022-10-29T10:39:38;21.30;99.90
26408;DHT22;14583;43.604;1.364;2022-10-29T10:42:23;21.30;99.90
26408;DHT22;14583;43.604;1.364;2022-10-29T10:45:04;21.40;99.90
26408;DHT22;14583;43.604;1.364;2022-10-29T10:47:36;21.40;99.90
26408;DHT22;14583;43.604;1.364;2022-10-29T10:50:29;21.50;99.90
26408;DHT22;14583;43.604;1.364;2022-10-29T10:53:13;21.50;99.90
26408;DHT22;14583;43.604;1.364;2022-10-29T10:55:47;21.50;99.90
26408;DHT22;14583;43.604;1.364;2022-10-29T11:00:57;21.50;99.90
26408;DHT22;14583;43.604;1.364;2022-10-29T11:06:22;21.60;99.90
26408;DHT22;14583;43.604;1.364;2022-10-29T11:09:02;21.60;99.90
26408;DHT22;14583;43.604;1.364;2022-10-29T11:11:43;21.60;99.90
26408;DHT22;14583;43.604;1.364;2022-10-29T11:14:14;21.70;99.90
26408;DHT22;14583;43.604;1.364;2022-10-29T11:16:49;21.70;99.90
26408;DHT22;14583;43.604;1.364;2022-10-29T11:19:24;21.80;99.90
26408;DHT22;14583;43.604;1.364;2022-10-29T11:24:52;21.80;99.90
26408;DHT22;14583;43.604;1.364;2022-10-29T11:32:39;22.00;99.90
26408;DHT22;14583;43.604;1.364;2022-10-29T11:37:56;22.10;99.90
26408;DHT22;14583;43.604;1.364;2022-10-29T11:42:53;22.10;99.90
26408;DHT22;14583;43.604;1.364;2022-10-29T11:45:50;22.30;99.90
26408;DHT22;14583;43.604;1.364;2022-10-29T11:59:06;22.10;99.90
26408;DHT22;14583;43.604;1.364;2022-10-29T12:04:27;22.40;99.90
26408;DHT22;14583;43.604;1.364;2022-10-29T12:13:13;22.70;99.90
26408;DHT22;14583;43.604;1.364;2022-10-29T12:26:58;22.30;99.90
26408;DHT22;14583;43.604;1.364;2022-10-29T12:29:39;22.40;99.90
26408;DHT22;14583;43.604;1.364;2022-10-29T12:35:07;22.20;99.90
26408;DHT22;14583;43.604;1.364;2022-10-29T12:40:40;22.30;99.90
26408;DHT22;14583;43.604;1.364;2022-10-29T12:43:14;22.30;99.90
26408;DHT22;14583;43.604;1.364;2022-10-29T12:56:28;22.60;99.90
26408;DHT22;14583;43.604;1.364;2022-10-29T12:59:27;22.60;99.90
26408;DHT22;14583;43.604;1.364;2022-10-29T13:01:54;22.80;99.90
26408;DHT22;14583;43.604;1.364;2022-10-29T13:04:30;23.00;99.90
26408;DHT22;14583;43.604;1.364;2022-10-29T13:07:05;23.10;99.90
26408;DHT22;14583;43.604;1.364;2022-10-29T13:09:47;23.10;99.90
26408;DHT22;14583;43.604;1.364;2022-10-29T13:12:13;23.20;99.90
26408;DHT22;14583;43.604;1.364;2022-10-29T13:15:08;23.20;99.90
26408;DHT22;14583;43.604;1.364;2022-10-29T13:17:36;23.10;99.90
26408;DHT22;14583;43.604;1.364;2022-10-29T13:20:26;23.30;99.90
26408;DHT22;14583;43.604;1.364;2022-10-29T13:22:58;23.40;99.90
26408;DHT22;14583;43.604;1.364;2022-10-29T13:30:36;23.40;99.90
26408;DHT22;14583;43.604;1.364;2022-10-29T13:36:01;22.90;99.90
26408;DHT22;14583;43.604;1.364;2022-10-29T13:41:16;22.90;99.90
26408;DHT22;14583;43.604;1.364;2022-10-29T13:44:02;22.90;99.90
26408;DHT22;14583;43.604;1.364;2022-10-29T13:47:01;23.00;99.90
26408;DHT22;14583;43.604;1.364;2022-10-29T13:49:36;22.90;99.90
26408;DHT22;14583;43.604;1.364;2022-10-29T13:52:13;22.90;99.90
26408;DHT22;14583;43.604;1.364;2022-10-29T13:57:42;22.90;99.90
26408;DHT22;14583;43.604;1.364;2022-10-29T14:02:50;22.80;99.90
26408;DHT22;14583;43.604;1.364;2022-10-29T14:08:24;23.30;99.90
26408;DHT22;14583;43.604;1.364;2022-10-29T14:10:56;23.70;99.90
26408;DHT22;14583;43.604;1.364;2022-10-29T14:13:30;23.80;99.90
26408;DHT22;14583;43.604;1.364;2022-10-29T14:18:35;23.90;99.90
26408;DHT22;14583;43.604;1.364;2022-10-29T14:21:04;23.90;99.90
26408;DHT22;14583;43.604;1.364;2022-10-29T14:23:31;24.20;99.90
26408;DHT22;14583;43.604;1.364;2022-10-29T14:25:59;24.30;99.90
26408;DHT22;14583;43.604;1.364;2022-10-29T14:28:30;24.20;99.90
26408;DHT22;14583;43.604;1.364;2022-10-29T14:31:11;24.30;99.90
26408;DHT22;14583;43.604;1.364;2022-10-29T14:33:42;24.20;99.90
26408;DHT22;14583;43.604;1.364;2022-10-29T14:36:30;24.20;99.90
26408;DHT22;14583;43.604;1.364;2022-10-29T14:39:24;24.40;99.90
26408;DHT22;14583;43.604;1.364;2022-10-29T14:41:52;24.60;99.90
26408;DHT22;14583;43.604;1.364;2022-10-29T14:44:23;24.70;99.90
26408;DHT22;14583;43.604;1.364;2022-10-29T14:47:29;25.70;99.90
26408;DHT22;14583;43.604;1.364;2022-10-29T14:49:54;27.00;99.90
26408;DHT22;14583;43.604;1.364;2022-10-29T14:52:34;29.20;99.90
26408;DHT22;14583;43.604;1.364;2022-10-29T14:55:07;30.60;98.90
26408;DHT22;14583;43.604;1.364;2022-10-29T14:57:37;30.60;97.80
26408;DHT22;14583;43.604;1.364;2022-10-29T15:00:05;31.10;96.40
26408;DHT22;14583;43.604;1.364;2022-10-29T15:02:37;32.20;96.40
26408;DHT22;14583;43.604;1.364;2022-10-29T15:05:19;33.90;92.90
26408;DHT22;14583;43.604;1.364;2022-10-29T15:07:46;35.00;92.40
26408;DHT22;14583;43.604;1.364;2022-10-29T15:10:24;35.20;88.90
26408;DHT22;14583;43.604;1.364;2022-10-29T15:12:51;33.00;90.90
26408;DHT22;14583;43.604;1.364;2022-10-29T15:18:04;34.70;88.20
26408;DHT22;14583;43.604;1.364;2022-10-29T15:23:10;35.90;85.80
26408;DHT22;14583;43.604;1.364;2022-10-29T15:25:39;36.10;82.00
26408;DHT22;14583;43.604;1.364;2022-10-29T15:28:09;36.80;80.40
26408;DHT22;14583;43.604;1.364;2022-10-29T15:30:37;36.40;79.90
26408;DHT22;14583;43.604;1.364;2022-10-29T15:33:05;34.90;81.10
26408;DHT22;14583;43.604;1.364;2022-10-29T15:35:36;34.60;81.30
26408;DHT22;14583;43.604;1.364;2022-10-29T15:43:32;31.30;87.60
26408;DHT22;14583;43.604;1.364;2022-10-29T15:45:58;31.50;87.40
26408;DHT22;14583;43.604;1.364;2022-10-29T15:48:33;30.00;87.90
26408;DHT22;14583;43.604;1.364;2022-10-29T15:50:59;27.70;91.80
26408;DHT22;14583;43.604;1.364;2022-10-29T15:53:25;27.20;92.60
26408;DHT22;14583;43.604;1.364;2022-10-29T15:55:51;26.30;93.50
26408;DHT22;14583;43.604;1.364;2022-10-29T15:58:20;25.90;94.50
26408;DHT22;14583;43.604;1.364;2022-10-29T16:00:50;25.70;95.00
26408;DHT22;14583;43.604;1.364;2022-10-29T16:05:45;24.70;96.40
26408;DHT22;14583;43.604;1.364;2022-10-29T16:08:30;24.40;96.90
26408;DHT22;14583;43.604;1.364;2022-10-29T16:10:58;24.10;97.40
26408;DHT22;14583;43.604;1.364;2022-10-29T16:13:25;23.90;98.00
26408;DHT22;14583;43.604;1.364;2022-10-29T16:15:51;23.30;99.10
26408;DHT22;14583;43.604;1.364;2022-10-29T16:18:17;22.90;99.80
26408;DHT22;14583;43.604;1.364;2022-10-29T16:20:42;22.90;99.90
26408;DHT22;14583;43.604;1.364;2022-10-29T16:23:09;22.70;99.90
26408;DHT22;14583;43.604;1.364;2022-10-29T16:25:35;22.60;99.90
26408;DHT22;14583;43.604;1.364;2022-10-29T16:28:01;22.50;99.90
26408;DHT22;14583;43.604;1.364;2022-10-29T16:30:27;22.10;99.90
26408;DHT22;14583;43.604;1.364;2022-10-29T16:32:53;22.00;99.90
26408;DHT22;14583;43.604;1.364;2022-10-29T16:35:19;21.90;99.90
26408;DHT22;14583;43.604;1.364;2022-10-29T16:37:46;21.80;99.90
26408;DHT22;14583;43.604;1.364;2022-10-29T16:40:12;21.70;99.90
26408;DHT22;14583;43.604;1.364;2022-10-29T16:42:38;21.90;99.90
26408;DHT22;14583;43.604;1.364;2022-10-29T16:45:05;21.80;99.90
26408;DHT22;14583;43.604;1.364;2022-10-29T16:47:31;21.60;99.90
26408;DHT22;14583;43.604;1.364;2022-10-29T16:49:57;21.30;99.90
26408;DHT22;14583;43.604;1.364;2022-10-29T16:52:23;21.30;99.90
26408;DHT22;14583;43.604;1.364;2022-10-29T16:54:48;21.30;99.90
26408;DHT22;14583;43.604;1.364;2022-10-29T16:57:14;21.20;99.90
26408;DHT22;14583;43.604;1.364;2022-10-29T16:59:39;21.10;99.90
26408;DHT22;14583;43.604;1.364;2022-10-29T17:02:05;21.00;99.90
26408;DHT22;14583;43.604;1.364;2022-10-29T17:04:31;20.90;99.90
26408;DHT22;14583;43.604;1.364;2022-10-29T17:06:57;20.80;99.90
26408;DHT22;14583;43.604;1.364;2022-10-29T17:09:22;20.60;99.90
26408;DHT22;14583;43.604;1.364;2022-10-29T17:11:48;20.60;99.90
26408;DHT22;14583;43.604;1.364;2022-10-29T17:14:14;20.70;99.90
26408;DHT22;14583;43.604;1.364;2022-10-29T17:16:39;20.60;99.90
26408;DHT22;14583;43.604;1.364;2022-10-29T17:19:05;20.60;99.90
26408;DHT22;14583;43.604;1.364;2022-10-29T17:21:31;20.60;99.90
26408;DHT22;14583;43.604;1.364;2022-10-29T17:23:57;20.60;99.90
26408;DHT22;14583;43.604;1.364;2022-10-29T17:26:23;20.60;99.90
26408;DHT22;14583;43.604;1.364;2022-10-29T17:28:49;20.50;99.90
26408;DHT22;14583;43.604;1.364;2022-10-29T17:31:14;20.40;99.90
26408;DHT22;14583;43.604;1.364;2022-10-29T17:33:40;20.40;99.90
26408;DHT22;14583;43.604;1.364;2022-10-29T17:36:11;20.30;99.90
26408;DHT22;14583;43.604;1.364;2022-10-29T17:38:37;20.20;99.90
26408;DHT22;14583;43.604;1.364;2022-10-29T17:41:03;20.20;99.90
26408;DHT22;14583;43.604;1.364;2022-10-29T17:43:28;20.10;99.90
26408;DHT22;14583;43.604;1.364;2022-10-29T17:45:54;20.00;99.90
26408;DHT22;14583;43.604;1.364;2022-10-29T17:48:20;20.00;99.90
26408;DHT22;14583;43.604;1.364;2022-10-29T17:50:56;20.00;99.90
26408;DHT22;14583;43.604;1.364;2022-10-29T17:53:23;19.80;99.90
26408;DHT22;14583;43.604;1.364;2022-10-29T17:55:49;19.90;99.90
26408;DHT22;14583;43.604;1.364;2022-10-29T17:58:18;19.80;99.90
26408;DHT22;14583;43.604;1.364;2022-10-29T18:00:45;19.80;99.90
26408;DHT22;14583;43.604;1.364;2022-10-29T18:03:11;19.80;99.90
26408;DHT22;14583;43.604;1.364;2022-10-29T18:05:36;19.70;99.90
26408;DHT22;14583;43.604;1.364;2022-10-29T18:08:02;19.70;99.90
26408;DHT22;14583;43.604;1.364;2022-10-29T18:10:29;19.70;99.90
26408;DHT22;14583;43.604;1.364;2022-10-29T18:12:55;19.80;99.90
26408;DHT22;14583;43.604;1.364;2022-10-29T18:15:21;19.90;99.90
26408;DHT22;14583;43.604;1.364;2022-10-29T18:17:46;19.80;99.90
26408;DHT22;14583;43.604;1.364;2022-10-29T18:20:12;19.80;99.90
26408;DHT22;14583;43.604;1.364;2022-10-29T18:22:37;19.70;99.90